sensor_id;sensor_type;location;lat;lon;timestamp;pressure;altitude;pressure_sealevel;temperature;humidity
19843;BME280;10082;51.038;6.992;2023-04-25T00:01:42;-1875.56;;;-144.33;100.00
19843;BME280;10082;51.038;6.992;2023-04-25T00:04:10;-2626.53;;;-144.33;100.00
19843;BME280;10082;51.038;6.992;2023-04-25T00:06:38;-3127.09;;;-144.33;100.00
19843;BME280;10082;51.038;6.992;2023-04-25T00:09:05;-3627.63;;;-144.33;100.00
19843;BME280;10082;51.038;6.992;2023-04-25T00:11:34;-3877.84;;;-144.33;100.00
19843;BME280;10082;51.038;6.992;2023-04-25T00:14:02;-4628.44;;;-144.33;100.00
19843;BME280;10082;51.038;6.992;2023-04-25T00:16:30;-4878.59;;;-144.33;100.00
19843;BME280;10082;51.038;6.992;2023-04-25T00:19:01;-5378.88;;;-144.33;100.00
19843;BME280;10082;51.038;6.992;2023-04-25T00:21:28;-5629.00;;;-144.33;100.00
19843;BME280;10082;51.038;6.992;2023-04-25T00:23:57;-6379.25;;;-144.33;100.00
19843;BME280;10082;51.038;6.992;2023-04-25T00:26:24;-7129.34;;;-144.33;100.00
19843;BME280;10082;51.038;6.992;2023-04-25T00:28:52;-7629.34;;;-144.33;100.00
19843;BME280;10082;51.038;6.992;2023-04-25T00:31:19;-8129.25;;;-144.33;100.00
19843;BME280;10082;51.038;6.992;2023-04-25T00:33:46;-8379.19;;;-144.33;100.00
19843;BME280;10082;51.038;6.992;2023-04-25T00:36:14;-8879.00;;;-144.33;100.00
19843;BME280;10082;51.038;6.992;2023-04-25T00:38:42;-9128.91;;;-144.33;100.00
19843;BME280;10082;51.038;6.992;2023-04-25T00:41:09;-9378.78;;;-144.33;100.00
19843;BME280;10082;51.038;6.992;2023-04-25T00:43:37;-9878.47;;;-144.33;100.00
19843;BME280;10082;51.038;6.992;2023-04-25T00:46:04;-10128.28;;;-144.33;100.00
19843;BME280;10082;51.038;6.992;2023-04-25T00:48:31;-10378.09;;;-144.33;100.00
19843;BME280;10082;51.038;6.992;2023-04-25T00:50:59;-10877.66;;;-144.33;100.00
19843;BME280;10082;51.038;6.992;2023-04-25T00:53:28;-12126.28;;;-144.33;100.00
19843;BME280;10082;51.038;6.992;2023-04-25T00:55:58;-12126.28;;;-144.33;100.00
19843;BME280;10082;51.038;6.992;2023-04-25T00:58:25;-12625.63;;;-144.33;100.00
19843;BME280;10082;51.038;6.992;2023-04-25T01:00:52;-13124.88;;;-144.33;100.00
19843;BME280;10082;51.038;6.992;2023-04-25T01:03:20;-13624.09;;;-144.33;100.00
19843;BME280;10082;51.038;6.992;2023-04-25T01:05:47;-14372.78;;;-144.33;100.00
19843;BME280;10082;51.038;6.992;2023-04-25T01:08:15;-14622.31;;;-144.33;100.00
19843;BME280;10082;51.038;6.992;2023-04-25T01:10:43;-15121.31;;;-144.33;100.00
19843;BME280;10082;51.038;6.992;2023-04-25T01:13:10;-15370.81;;;-144.33;100.00
19843;BME280;10082;51.038;6.992;2023-04-25T01:15:38;-16119.16;;;-144.33;100.00
19843;BME280;10082;51.038;6.992;2023-04-25T01:18:05;-16617.97;;;-144.33;100.00
19843;BME280;10082;51.038;6.992;2023-04-25T01:20:33;-17116.72;;;-144.33;100.00
19843;BME280;10082;51.038;6.992;2023-04-25T01:23:02;-17116.72;;;-144.33;100.00
19843;BME280;10082;51.038;6.992;2023-04-25T01:25:29;-17116.72;;;-144.33;100.00
19843;BME280;10082;51.038;6.992;2023-04-25T01:27:57;-17116.72;;;-144.33;100.00
19843;BME280;10082;51.038;6.992;2023-04-25T01:30:26;-17116.72;;;-144.33;100.00
19843;BME280;10082;51.038;6.992;2023-04-25T01:32:55;-17116.72;;;-144.33;100.00
19843;BME280;10082;51.038;6.992;2023-04-25T01:35:23;-16617.97;;;-144.33;100.00
19843;BME280;10082;51.038;6.992;2023-04-25T01:37:53;-15869.72;;;-144.33;100.00
19843;BME280;10082;51.038;6.992;2023-04-25T01:40:22;-15121.31;;;-144.33;100.00
19843;BME280;10082;51.038;6.992;2023-04-25T01:42:51;-14622.31;;;-144.33;100.00
19843;BME280;10082;51.038;6.992;2023-04-25T01:45:19;-14372.78;;;-144.33;100.00
19843;BME280;10082;51.038;6.992;2023-04-25T01:47:47;-13624.09;;;-144.33;100.00
19843;BME280;10082;51.038;6.992;2023-04-25T01:50:16;-13374.50;;;-144.33;100.00
19843;BME280;10082;51.038;6.992;2023-04-25T01:52:44;-12875.25;;;-144.33;100.00
19843;BME280;10082;51.038;6.992;2023-04-25T01:55:12;-12375.97;;;-144.33;100.00
19843;BME280;10082;51.038;6.992;2023-04-25T01:57:54;-12126.28;;;-144.33;100.00
19843;BME280;10082;51.038;6.992;2023-04-25T02:00:29;-11626.88;;;-144.33;100.00
19843;BME280;10082;51.038;6.992;2023-04-25T02:02:57;-11377.16;;;-144.33;100.00
19843;BME280;10082;51.038;6.992;2023-04-25T02:05:34;-10877.66;;;-144.33;100.00
19843;BME280;10082;51.038;6.992;2023-04-25T02:08:02;-10378.09;;;-144.33;100.00
19843;BME280;10082;51.038;6.992;2023-04-25T02:10:31;-9878.47;;;-144.33;100.00
19843;BME280;10082;51.038;6.992;2023-04-25T02:13:10;-9628.63;;;-144.33;100.00
19843;BME280;10082;51.038;6.992;2023-04-25T02:15:55;-9128.91;;;-144.33;100.00
19843;BME280;10082;51.038;6.992;2023-04-25T02:18:23;-8879.00;;;-144.33;100.00
19843;BME280;10082;51.038;6.992;2023-04-25T02:20:50;-8879.00;;;-144.33;100.00
19843;BME280;10082;51.038;6.992;2023-04-25T02:23:20;-8879.00;;;-144.33;100.00
19843;BME280;10082;51.038;6.992;2023-04-25T02:25:48;-8879.00;;;-144.33;100.00
19843;BME280;10082;51.038;6.992;2023-04-25T02:28:17;-8879.00;;;-144.33;100.00
19843;BME280;10082;51.038;6.992;2023-04-25T02:30:44;-8879.00;;;-144.33;100.00
19843;BME280;10082;51.038;6.992;2023-04-25T02:33:12;-8629.13;;;-144.33;100.00
19843;BME280;10082;51.038;6.992;2023-04-25T02:35:42;-8379.19;;;-144.33;100.00
19843;BME280;10082;51.038;6.992;2023-04-25T02:38:09;-8129.25;;;-144.33;100.00
19843;BME280;10082;51.038;6.992;2023-04-25T02:40:39;-7879.31;;;-144.33;100.00
19843;BME280;10082;51.038;6.992;2023-04-25T02:43:06;-7879.31;;;-144.33;100.00
19843;BME280;10082;51.038;6.992;2023-04-25T02:45:35;-7879.31;;;-144.33;100.00
19843;BME280;10082;51.038;6.992;2023-04-25T02:48:03;-7629.34;;;-144.33;100.00
19843;BME280;10082;51.038;6.992;2023-04-25T02:50:31;-7629.34;;;-144.33;100.00
19843;BME280;10082;51.038;6.992;2023-04-25T02:52:59;-7629.34;;;-144.33;100.00
19843;BME280;10082;51.038;6.992;2023-04-25T02:55:32;-7379.34;;;-144.33;100.00
19843;BME280;10082;51.038;6.992;2023-04-25T02:58:01;-7379.34;;;-144.33;100.00
19843;BME280;10082;51.038;6.992;2023-04-25T03:00:43;-7379.34;;;-144.33;100.00
19843;BME280;10082;51.038;6.992;2023-04-25T03:03:11;-7379.34;;;-144.33;100.00
19843;BME280;10082;51.038;6.992;2023-04-25T03:08:41;-7379.34;;;-144.33;100.00
19843;BME280;10082;51.038;6.992;2023-04-25T03:11:09;-7129.34;;;-144.33;100.00
19843;BME280;10082;51.038;6.992;2023-04-25T03:13:37;-7129.34;;;-144.33;100.00
19843;BME280;10082;51.038;6.992;2023-04-25T03:16:06;-7129.34;;;-144.33;100.00
19843;BME280;10082;51.038;6.992;2023-04-25T03:18:33;-6879.34;;;-144.33;100.00
19843;BME280;10082;51.038;6.992;2023-04-25T03:21:00;-6629.28;;;-144.33;100.00
19843;BME280;10082;51.038;6.992;2023-04-25T03:23:30;-6629.28;;;-144.33;100.00
19843;BME280;10082;51.038;6.992;2023-04-25T03:25:57;-6379.25;;;-144.33;100.00
19843;BME280;10082;51.038;6.992;2023-04-25T03:28:24;-6379.25;;;-144.33;100.00
19843;BME280;10082;51.038;6.992;2023-04-25T03:30:52;-6379.25;;;-144.33;100.00
19843;BME280;10082;51.038;6.992;2023-04-25T03:33:21;-6129.19;;;-144.33;100.00
19843;BME280;10082;51.038;6.992;2023-04-25T03:35:49;-6379.25;;;-144.33;100.00
19843;BME280;10082;51.038;6.992;2023-04-25T03:38:16;-6379.25;;;-144.33;100.00
19843;BME280;10082;51.038;6.992;2023-04-25T03:40:44;-6379.25;;;-144.33;100.00
19843;BME280;10082;51.038;6.992;2023-04-25T03:43:22;-6629.28;;;-144.33;100.00
19843;BME280;10082;51.038;6.992;2023-04-25T03:45:55;-6629.28;;;-144.33;100.00
19843;BME280;10082;51.038;6.992;2023-04-25T03:48:25;-6879.34;;;-144.33;100.00
19843;BME280;10082;51.038;6.992;2023-04-25T03:50:53;-6879.34;;;-144.33;100.00
19843;BME280;10082;51.038;6.992;2023-04-25T03:53:20;-7129.34;;;-144.33;100.00
19843;BME280;10082;51.038;6.992;2023-04-25T03:56:07;-7129.34;;;-144.33;100.00
19843;BME280;10082;51.038;6.992;2023-04-25T03:58:37;-7629.34;;;-144.33;100.00
19843;BME280;10082;51.038;6.992;2023-04-25T04:01:05;-7879.31;;;-144.33;100.00
19843;BME280;10082;51.038;6.992;2023-04-25T04:03:36;-8129.25;;;-144.33;100.00
19843;BME280;10082;51.038;6.992;2023-04-25T04:06:04;-8379.19;;;-144.33;100.00
19843;BME280;10082;51.038;6.992;2023-04-25T04:08:35;-8879.00;;;-144.33;100.00
19843;BME280;10082;51.038;6.992;2023-04-25T04:11:04;-9128.91;;;-144.33;100.00
19843;BME280;10082;51.038;6.992;2023-04-25T04:13:31;-9628.63;;;-144.33;100.00
19843;BME280;10082;51.038;6.992;2023-04-25T04:16:00;-10128.28;;;-144.33;100.00
19843;BME280;10082;51.038;6.992;2023-04-25T04:18:27;-10378.09;;;-144.33;100.00
19843;BME280;10082;51.038;6.992;2023-04-25T04:20:57;-10627.88;;;-144.33;100.00
19843;BME280;10082;51.038;6.992;2023-04-25T04:23:24;-10877.66;;;-144.33;100.00
19843;BME280;10082;51.038;6.992;2023-04-25T04:25:53;-11127.41;;;-144.33;100.00
19843;BME280;10082;51.038;6.992;2023-04-25T04:28:26;-11377.16;;;-144.33;100.00
19843;BME280;10082;51.038;6.992;2023-04-25T04:30:58;-11626.88;;;-144.33;100.00
19843;BME280;10082;51.038;6.992;2023-04-25T04:33:27;-11876.59;;;-144.33;100.00
19843;BME280;10082;51.038;6.992;2023-04-25T04:36:00;-12126.28;;;-144.33;100.00
19843;BME280;10082;51.038;6.992;2023-04-25T04:38:30;-12375.97;;;-144.33;100.00
19843;BME280;10082;51.038;6.992;2023-04-25T04:41:00;-12625.63;;;-144.33;100.00
19843;BME280;10082;51.038;6.992;2023-04-25T04:43:48;-12875.25;;;-144.33;100.00
19843;BME280;10082;51.038;6.992;2023-04-25T04:46:37;-13124.88;;;-144.33;100.00
19843;BME280;10082;51.038;6.992;2023-04-25T04:49:13;-13374.50;;;-144.33;100.00
19843;BME280;10082;51.038;6.992;2023-04-25T04:52:02;-13374.50;;;-144.33;100.00
19843;BME280;10082;51.038;6.992;2023-04-25T04:54:49;-13624.09;;;-144.33;100.00
19843;BME280;10082;51.038;6.992;2023-04-25T04:57:35;-13873.69;;;-144.33;100.00
19843;BME280;10082;51.038;6.992;2023-04-25T05:00:34;-14123.22;;;-144.33;100.00
19843;BME280;10082;51.038;6.992;2023-04-25T05:03:26;-14123.22;;;-144.33;100.00
19843;BME280;10082;51.038;6.992;2023-04-25T05:06:09;-14372.78;;;-144.33;100.00
19843;BME280;10082;51.038;6.992;2023-04-25T05:08:48;-14123.22;;;-144.33;100.00
19843;BME280;10082;51.038;6.992;2023-04-25T05:11:39;-14123.22;;;-144.33;100.00
19843;BME280;10082;51.038;6.992;2023-04-25T05:14:32;-14123.22;;;-144.33;100.00
19843;BME280;10082;51.038;6.992;2023-04-25T05:17:08;-14123.22;;;-144.33;100.00
19843;BME280;10082;51.038;6.992;2023-04-25T05:19:43;-13624.09;;;-144.33;100.00
19843;BME280;10082;51.038;6.992;2023-04-25T05:22:18;-13624.09;;;-144.33;100.00
19843;BME280;10082;51.038;6.992;2023-04-25T05:25:11;-13624.09;;;-144.33;100.00
19843;BME280;10082;51.038;6.992;2023-04-25T05:28:00;-13624.09;;;-144.33;100.00
19843;BME280;10082;51.038;6.992;2023-04-25T05:30:48;-13624.09;;;-144.33;100.00
19843;BME280;10082;51.038;6.992;2023-04-25T05:33:23;-13624.09;;;-144.33;100.00
19843;BME280;10082;51.038;6.992;2023-04-25T05:35:51;-13624.09;;;-144.33;100.00
19843;BME280;10082;51.038;6.992;2023-04-25T05:38:18;-13374.50;;;-144.33;100.00
19843;BME280;10082;51.038;6.992;2023-04-25T05:41:05;-13124.88;;;-144.33;100.00
19843;BME280;10082;51.038;6.992;2023-04-25T05:43:46;-13374.50;;;-144.33;100.00
19843;BME280;10082;51.038;6.992;2023-04-25T05:46:39;-13124.88;;;-144.33;100.00
19843;BME280;10082;51.038;6.992;2023-04-25T05:49:30;-12875.25;;;-144.33;100.00
19843;BME280;10082;51.038;6.992;2023-04-25T05:52:18;-12625.63;;;-144.33;100.00
19843;BME280;10082;51.038;6.992;2023-04-25T05:54:56;-12875.25;;;-144.33;100.00
19843;BME280;10082;51.038;6.992;2023-04-25T05:57:25;-12625.63;;;-144.33;100.00
19843;BME280;10082;51.038;6.992;2023-04-25T05:59:54;-12375.97;;;-144.33;100.00
19843;BME280;10082;51.038;6.992;2023-04-25T06:02:28;-11127.41;;;-144.33;100.00
19843;BME280;10082;51.038;6.992;2023-04-25T06:04:55;-11127.41;;;-144.33;100.00
19843;BME280;10082;51.038;6.992;2023-04-25T06:07:29;-10877.66;;;-144.33;100.00
19843;BME280;10082;51.038;6.992;2023-04-25T06:09:56;-9628.63;;;-144.33;100.00
19843;BME280;10082;51.038;6.992;2023-04-25T06:12:26;-9378.78;;;-144.33;100.00
19843;BME280;10082;51.038;6.992;2023-04-25T06:14:53;-8129.25;;;-144.33;100.00
19843;BME280;10082;51.038;6.992;2023-04-25T06:17:20;-7379.34;;;-144.33;100.00
19843;BME280;10082;51.038;6.992;2023-04-25T06:19:49;-5629.00;;;-144.33;100.00
19843;BME280;10082;51.038;6.992;2023-04-25T06:22:16;-3627.63;;;-144.33;100.00
19843;BME280;10082;51.038;6.992;2023-04-25T06:24:43;1380.41;;;-144.33;100.00
19843;BME280;10082;51.038;6.992;2023-04-25T06:27:11;2132.16;;;-144.33;100.00
19843;BME280;10082;51.038;6.992;2023-04-25T06:29:40;4889.88;;;-144.33;100.00
19843;BME280;10082;51.038;6.992;2023-04-25T06:32:07;8402.56;;;-144.33;100.00
19843;BME280;10082;51.038;6.992;2023-04-25T06:34:35;10411.22;;;-144.33;100.00
19843;BME280;10082;51.038;6.992;2023-04-25T06:37:01;14431.69;;;-144.33;100.00
19843;BME280;10082;51.038;6.992;2023-04-25T06:39:29;15688.94;;;-144.33;100.00
19843;BME280;10082;51.038;6.992;2023-04-25T06:41:56;18708.03;;;-144.33;100.00
19843;BME280;10082;51.038;6.992;2023-04-25T06:44:47;24249.06;;;-144.33;100.00
19843;BME280;10082;51.038;6.992;2023-04-25T06:47:14;28788.50;;;-144.33;100.00
19843;BME280;10082;51.038;6.992;2023-04-25T06:49:42;30807.75;;;-144.33;100.00
19843;BME280;10082;51.038;6.992;2023-04-25T06:52:10;34596.59;;;-144.33;100.00
19843;BME280;10082;51.038;6.992;2023-04-25T06:54:38;40919.50;;;-144.33;100.00
19843;BME280;10082;51.038;6.992;2023-04-25T06:57:28;41425.78;;;-144.33;100.00
19843;BME280;10082;51.038;6.992;2023-04-25T07:00:03;48520.41;;;-144.33;100.00
19843;BME280;10082;51.038;6.992;2023-04-25T07:02:33;49788.66;;;-144.33;100.00
19843;BME280;10082;51.038;6.992;2023-04-25T07:05:02;55627.81;;;-144.33;100.00
19843;BME280;10082;51.038;6.992;2023-04-25T07:07:30;59694.94;;;-144.33;100.00
19843;BME280;10082;51.038;6.992;2023-04-25T07:09:58;67586.81;;;-144.33;100.00
19843;BME280;10082;51.038;6.992;2023-04-25T07:12:26;65803.41;;;-144.33;100.00
19843;BME280;10082;51.038;6.992;2023-04-25T07:14:53;69371.00;;;-144.33;100.00
19843;BME280;10082;51.038;6.992;2023-04-25T07:17:22;70645.94;;;-144.33;100.00
19843;BME280;10082;51.038;6.992;2023-04-25T07:19:49;68861.16;;;-144.33;100.00
19843;BME280;10082;51.038;6.992;2023-04-25T07:22:16;61984.50;;;-144.33;100.00
19843;BME280;10082;51.038;6.992;2023-04-25T07:24:43;61984.50;;;-144.33;100.00
19843;BME280;10082;51.038;6.992;2023-04-25T07:27:17;60712.34;;;-144.33;100.00
19843;BME280;10082;51.038;6.992;2023-04-25T07:29:50;61221.16;;;-144.33;100.00
19843;BME280;10082;51.038;6.992;2023-04-25T07:32:24;62493.47;;;-144.33;100.00
19843;BME280;10082;51.038;6.992;2023-04-25T07:34:52;63511.63;;;-144.33;100.00
19843;BME280;10082;51.038;6.992;2023-04-25T07:37:19;68096.50;;;-144.33;100.00
19843;BME280;10082;51.038;6.992;2023-04-25T07:39:59;82905.88;;;-144.33;100.00
19843;BME280;10082;51.038;6.992;2023-04-25T07:42:26;91612.69;;;-144.33;100.00
19843;BME280;10082;51.038;6.992;2023-04-25T07:44:54;105369.31;;;-144.33;100.00
19843;BME280;10082;51.038;6.992;2023-04-25T07:47:23;112171.53;;;-144.33;100.00
19843;BME280;10082;51.038;6.992;2023-04-25T07:49:51;112171.53;;;-144.33;100.00
19843;BME280;10082;51.038;6.992;2023-04-25T07:52:18;112171.53;;;-144.33;100.00
19843;BME280;10082;51.038;6.992;2023-04-25T07:54:51;112171.53;;;-144.33;100.00
19843;BME280;10082;51.038;6.992;2023-04-25T07:57:26;112171.53;;;-144.33;100.00
19843;BME280;10082;51.038;6.992;2023-04-25T07:59:55;112171.53;;;-144.33;100.00
19843;BME280;10082;51.038;6.992;2023-04-25T08:02:24;112171.53;;;-144.33;100.00
19843;BME280;10082;51.038;6.992;2023-04-25T08:04:54;112171.53;;;-144.33;100.00
19843;BME280;10082;51.038;6.992;2023-04-25T08:07:22;112171.53;;;-144.33;100.00
19843;BME280;10082;51.038;6.992;2023-04-25T08:09:53;112171.53;;;-144.33;100.00
19843;BME280;10082;51.038;6.992;2023-04-25T08:15:53;112171.53;;;-144.33;100.00
19843;BME280;10082;51.038;6.992;2023-04-25T08:18:21;112171.53;;;-144.33;100.00
19843;BME280;10082;51.038;6.992;2023-04-25T08:20:49;112171.53;;;-144.33;100.00
19843;BME280;10082;51.038;6.992;2023-04-25T08:23:16;112171.53;;;-144.33;100.00
19843;BME280;10082;51.038;6.992;2023-04-25T08:26:02;112171.53;;;-144.33;100.00
19843;BME280;10082;51.038;6.992;2023-04-25T08:28:33;112171.53;;;-144.33;100.00
19843;BME280;10082;51.038;6.992;2023-04-25T08:31:01;112171.53;;;-144.33;100.00
19843;BME280;10082;51.038;6.992;2023-04-25T08:33:38;112171.53;;;-144.33;100.00
19843;BME280;10082;51.038;6.992;2023-04-25T08:36:14;112171.53;;;-144.33;100.00
19843;BME280;10082;51.038;6.992;2023-04-25T08:38:41;112171.53;;;-144.33;100.00
19843;BME280;10082;51.038;6.992;2023-04-25T08:41:11;112171.53;;;-144.33;100.00
19843;BME280;10082;51.038;6.992;2023-04-25T08:43:42;112171.53;;;-144.33;100.00
19843;BME280;10082;51.038;6.992;2023-04-25T08:46:09;112171.53;;;-144.33;100.00
19843;BME280;10082;51.038;6.992;2023-04-25T08:49:04;112171.53;;;-144.33;100.00
19843;BME280;10082;51.038;6.992;2023-04-25T08:51:32;112171.53;;;-144.33;100.00
19843;BME280;10082;51.038;6.992;2023-04-25T08:54:08;112171.53;;;-144.33;100.00
19843;BME280;10082;51.038;6.992;2023-04-25T08:56:37;112171.53;;;-144.33;100.00
19843;BME280;10082;51.038;6.992;2023-04-25T08:59:05;112171.53;;;-144.33;100.00
19843;BME280;10082;51.038;6.992;2023-04-25T09:01:35;112171.53;;;-144.33;100.00
19843;BME280;10082;51.038;6.992;2023-04-25T09:04:03;112171.53;;;-144.33;100.00
19843;BME280;10082;51.038;6.992;2023-04-25T09:06:32;112171.53;;;-144.33;100.00
19843;BME280;10082;51.038;6.992;2023-04-25T09:09:02;112171.53;;;-144.33;100.00
19843;BME280;10082;51.038;6.992;2023-04-25T09:11:31;112171.53;;;-144.33;100.00
19843;BME280;10082;51.038;6.992;2023-04-25T09:14:11;112171.53;;;-144.33;95.55
19843;BME280;10082;51.038;6.992;2023-04-25T09:17:02;112171.53;;;-144.33;87.64
19843;BME280;10082;51.038;6.992;2023-04-25T09:19:53;112171.53;;;-144.33;85.44
19843;BME280;10082;51.038;6.992;2023-04-25T09:22:25;112171.53;;;-144.33;87.66
19843;BME280;10082;51.038;6.992;2023-04-25T09:24:55;112171.53;;;-144.33;87.98
19843;BME280;10082;51.038;6.992;2023-04-25T09:27:25;112171.53;;;-144.33;89.97
19843;BME280;10082;51.038;6.992;2023-04-25T09:30:02;112171.53;;;-144.33;92.10
19843;BME280;10082;51.038;6.992;2023-04-25T09:32:50;112171.53;;;-144.33;90.96
19843;BME280;10082;51.038;6.992;2023-04-25T09:35:25;112171.53;;;-144.33;91.33
19843;BME280;10082;51.038;6.992;2023-04-25T09:37:54;112171.53;;;-144.33;89.24
19843;BME280;10082;51.038;6.992;2023-04-25T09:40:59;112171.53;;;-144.33;81.30
19843;BME280;10082;51.038;6.992;2023-04-25T09:43:40;112171.53;;;-144.33;73.45
19843;BME280;10082;51.038;6.992;2023-04-25T09:46:11;112171.53;;;-144.33;66.80
19843;BME280;10082;51.038;6.992;2023-04-25T09:48:48;112171.53;;;-144.33;67.89
19843;BME280;10082;51.038;6.992;2023-04-25T09:51:25;112171.53;;;-144.33;69.71
19843;BME280;10082;51.038;6.992;2023-04-25T09:53:54;112171.53;;;-144.33;70.36
19843;BME280;10082;51.038;6.992;2023-04-25T09:56:43;112171.53;;;-144.33;70.35
19843;BME280;10082;51.038;6.992;2023-04-25T09:59:14;112171.53;;;-144.33;69.10
19843;BME280;10082;51.038;6.992;2023-04-25T10:01:43;112171.53;;;-144.33;69.48
19843;BME280;10082;51.038;6.992;2023-04-25T10:04:21;112171.53;;;-144.33;68.13
19843;BME280;10082;51.038;6.992;2023-04-25T10:07:07;112171.53;;;-144.33;67.09
19843;BME280;10082;51.038;6.992;2023-04-25T10:09:37;112171.53;;;-144.33;64.99
19843;BME280;10082;51.038;6.992;2023-04-25T10:12:05;112171.53;;;-144.33;65.56
19843;BME280;10082;51.038;6.992;2023-04-25T10:14:33;112171.53;;;-144.33;65.58
19843;BME280;10082;51.038;6.992;2023-04-25T10:17:01;112171.53;;;-144.33;64.46
19843;BME280;10082;51.038;6.992;2023-04-25T10:19:29;112171.53;;;-144.33;64.39
19843;BME280;10082;51.038;6.992;2023-04-25T10:22:03;112171.53;;;-144.33;62.20
19843;BME280;10082;51.038;6.992;2023-04-25T10:24:33;112171.53;;;-144.33;61.49
19843;BME280;10082;51.038;6.992;2023-04-25T10:27:02;112171.53;;;-144.33;58.12
19843;BME280;10082;51.038;6.992;2023-04-25T10:29:29;112171.53;;;-144.33;58.92
19843;BME280;10082;51.038;6.992;2023-04-25T10:31:56;112171.53;;;-144.33;60.72
19843;BME280;10082;51.038;6.992;2023-04-25T10:34:37;112171.53;;;-144.33;64.04
19843;BME280;10082;51.038;6.992;2023-04-25T10:37:05;112171.53;;;-144.33;64.78
19843;BME280;10082;51.038;6.992;2023-04-25T10:39:38;112171.53;;;-144.33;67.18
19843;BME280;10082;51.038;6.992;2023-04-25T10:42:05;112171.53;;;-144.33;67.33
19843;BME280;10082;51.038;6.992;2023-04-25T10:44:33;112171.53;;;-144.33;68.27
19843;BME280;10082;51.038;6.992;2023-04-25T10:47:01;112171.53;;;-144.33;68.36
19843;BME280;10082;51.038;6.992;2023-04-25T10:49:35;112171.53;;;-144.33;68.29
19843;BME280;10082;51.038;6.992;2023-04-25T10:52:13;112171.53;;;-144.33;68.84
19843;BME280;10082;51.038;6.992;2023-04-25T10:54:45;112171.53;;;-144.33;67.89
19843;BME280;10082;51.038;6.992;2023-04-25T10:57:36;112171.53;;;-144.33;66.10
19843;BME280;10082;51.038;6.992;2023-04-25T11:00:10;112171.53;;;-144.33;64.09
19843;BME280;10082;51.038;6.992;2023-04-25T11:02:40;112171.53;;;-144.33;62.32
19843;BME280;10082;51.038;6.992;2023-04-25T11:05:08;112171.53;;;-144.33;61.19
19843;BME280;10082;51.038;6.992;2023-04-25T11:07:44;112171.53;;;-144.33;61.89
19843;BME280;10082;51.038;6.992;2023-04-25T11:10:18;112171.53;;;-144.33;60.22
19843;BME280;10082;51.038;6.992;2023-04-25T11:12:46;112171.53;;;-144.33;58.64
19843;BME280;10082;51.038;6.992;2023-04-25T11:15:13;112171.53;;;-144.33;58.07
19843;BME280;10082;51.038;6.992;2023-04-25T11:17:41;112171.53;;;-144.33;56.14
19843;BME280;10082;51.038;6.992;2023-04-25T11:20:09;112171.53;;;-144.33;57.35
19843;BME280;10082;51.038;6.992;2023-04-25T11:22:38;112171.53;;;-144.33;56.22
19843;BME280;10082;51.038;6.992;2023-04-25T11:25:07;112171.53;;;-144.33;52.89
19843;BME280;10082;51.038;6.992;2023-04-25T11:27:39;112171.53;;;-144.33;51.25
19843;BME280;10082;51.038;6.992;2023-04-25T11:30:16;112171.53;;;-144.33;46.67
19843;BME280;10082;51.038;6.992;2023-04-25T11:32:43;112171.53;;;-144.33;45.34
19843;BME280;10082;51.038;6.992;2023-04-25T11:35:11;112171.53;;;-144.33;45.42
19843;BME280;10082;51.038;6.992;2023-04-25T11:37:39;112171.53;;;-144.33;46.96
19843;BME280;10082;51.038;6.992;2023-04-25T11:40:07;112171.53;;;-144.33;48.04
19843;BME280;10082;51.038;6.992;2023-04-25T11:42:43;112171.53;;;-144.33;49.09
19843;BME280;10082;51.038;6.992;2023-04-25T11:45:11;112171.53;;;-144.33;49.02
19843;BME280;10082;51.038;6.992;2023-04-25T11:47:39;112171.53;;;-144.33;47.43
19843;BME280;10082;51.038;6.992;2023-04-25T11:50:07;112171.53;;;-144.33;45.38
19843;BME280;10082;51.038;6.992;2023-04-25T11:52:38;112171.53;;;-144.33;43.98
19843;BME280;10082;51.038;6.992;2023-04-25T11:55:08;112171.53;;;-144.33;43.93
19843;BME280;10082;51.038;6.992;2023-04-25T11:57:36;112171.53;;;-144.33;43.84
19843;BME280;10082;51.038;6.992;2023-04-25T12:00:11;112171.53;;;-144.33;42.14
19843;BME280;10082;51.038;6.992;2023-04-25T12:02:43;112171.53;;;-144.33;42.72
19843;BME280;10082;51.038;6.992;2023-04-25T12:05:11;112171.53;;;-144.33;44.53
19843;BME280;10082;51.038;6.992;2023-04-25T12:07:39;112171.53;;;-144.33;44.58
19843;BME280;10082;51.038;6.992;2023-04-25T12:10:07;112171.53;;;-144.33;44.40
19843;BME280;10082;51.038;6.992;2023-04-25T12:12:36;112171.53;;;-144.33;44.25
19843;BME280;10082;51.038;6.992;2023-04-25T12:15:14;112171.53;;;-144.33;41.63
19843;BME280;10082;51.038;6.992;2023-04-25T12:17:45;112171.53;;;-144.33;43.23
19843;BME280;10082;51.038;6.992;2023-04-25T12:20:14;112171.53;;;-144.33;41.27
19843;BME280;10082;51.038;6.992;2023-04-25T12:22:42;112171.53;;;-144.33;41.15
19843;BME280;10082;51.038;6.992;2023-04-25T12:25:17;112171.53;;;-144.33;41.82
19843;BME280;10082;51.038;6.992;2023-04-25T12:28:10;112171.53;;;-144.33;42.21
19843;BME280;10082;51.038;6.992;2023-04-25T12:30:55;112171.53;;;-144.33;41.79
19843;BME280;10082;51.038;6.992;2023-04-25T12:33:23;112171.53;;;-144.33;42.56
19843;BME280;10082;51.038;6.992;2023-04-25T12:35:50;112171.53;;;-144.33;45.13
19843;BME280;10082;51.038;6.992;2023-04-25T12:38:22;112171.53;;;-144.33;47.17
19843;BME280;10082;51.038;6.992;2023-04-25T12:40:49;112171.53;;;-144.33;49.91
19843;BME280;10082;51.038;6.992;2023-04-25T12:43:16;112171.53;;;-144.33;53.02
19843;BME280;10082;51.038;6.992;2023-04-25T12:45:43;112171.53;;;-144.33;54.66
19843;BME280;10082;51.038;6.992;2023-04-25T12:48:12;112171.53;;;-144.33;56.28
19843;BME280;10082;51.038;6.992;2023-04-25T12:50:39;112171.53;;;-144.33;57.44
19843;BME280;10082;51.038;6.992;2023-04-25T12:53:06;112171.53;;;-144.33;58.70
19843;BME280;10082;51.038;6.992;2023-04-25T12:55:33;112171.53;;;-144.33;59.94